Time;durP1;ratioP1;P1;durP2;ratioP2;P2;SDS_P1;SDS_P2;PMS_P1;PMS_P2;Temp;Humidity;BMP_temperature;BMP_pressure;BME280_temperature;BME280_humidity;BME280_pressure;Samples;Min_cycle;Max_cycle;Signal;HPM_P1;HPM_P2
2022/05/19 00:01:27;;;;;;;4.82;3.08;;;18.70;99.90;;;;;;5052628;28;20033;-50
2022/05/19 00:07:43;;;;;;;7.53;3.28;;;18.60;99.90;;;;;;5054080;28;20039;-51
2022/05/19 00:10:09;;;;;;;7.43;3.53;;;18.60;99.90;;;;;;5053781;28;20013;-48
2022/05/19 00:12:35;;;;;;;5.65;3.83;;;18.50;99.90;;;;;;5053990;28;20109;-48
2022/05/19 00:15:01;;;;;;;8.70;3.60;;;18.50;99.90;;;;;;5015950;28;1104526;-48
2022/05/19 00:17:27;;;;;;;4.68;3.67;;;18.40;99.90;;;;;;5053406;28;20025;-48
2022/05/19 00:19:52;;;;;;;4.40;3.13;;;18.40;99.90;;;;;;5054891;28;20059;-51
2022/05/19 00:22:18;;;;;;;5.60;3.80;;;18.40;99.90;;;;;;5053632;28;20473;-49
2022/05/19 00:24:44;;;;;;;5.78;3.92;;;18.40;99.90;;;;;;5053413;28;20116;-51
2022/05/19 00:27:10;;;;;;;5.55;3.30;;;18.30;99.90;;;;;;5054582;28;20096;-49
2022/05/19 00:29:35;;;;;;;7.32;3.90;;;18.30;99.90;;;;;;5053064;28;20392;-48
2022/05/19 00:32:01;;;;;;;11.00;4.25;;;18.30;99.90;;;;;;5053395;28;20025;-50
2022/05/19 00:34:26;;;;;;;8.27;3.70;;;18.30;99.90;;;;;;5053035;28;20028;-48
2022/05/19 00:37:01;;;;;;;7.32;4.28;;;18.30;99.90;;;;;;5054334;28;20104;-49
2022/05/19 00:39:30;;;;;;;7.75;4.03;;;18.30;99.90;;;;;;5054256;28;20017;-49
2022/05/19 00:44:41;;;;;;;7.38;3.35;;;18.40;99.90;;;;;;5053289;28;20167;-54
2022/05/19 00:47:19;;;;;;;4.55;3.17;;;18.50;99.90;;;;;;5054138;28;20029;-54
2022/05/19 00:49:47;;;;;;;5.55;3.03;;;18.50;99.90;;;;;;5053047;28;20025;-51
2022/05/19 00:52:30;;;;;;;6.00;3.67;;;18.60;99.90;;;;;;5054309;28;20025;-55
2022/05/19 00:55:17;;;;;;;5.18;3.03;;;18.60;99.90;;;;;;5053319;28;20028;-51
2022/05/19 00:57:55;;;;;;;5.25;3.33;;;18.60;99.90;;;;;;5053485;28;20040;-49
2022/05/19 01:00:22;;;;;;;6.00;3.50;;;18.60;99.90;;;;;;5053066;28;20021;-49
2022/05/19 01:02:55;;;;;;;11.32;3.95;;;18.60;99.90;;;;;;5053706;28;20054;-49
2022/05/19 01:05:34;;;;;;;3.67;3.28;;;18.60;99.90;;;;;;5052594;28;20021;-52
2022/05/19 01:08:20;;;;;;;6.50;3.03;;;18.50;99.90;;;;;;5054100;28;20021;-52
2022/05/19 01:10:48;;;;;;;6.00;3.60;;;18.50;99.90;;;;;;5053885;28;20025;-51
2022/05/19 01:13:15;;;;;;;5.47;3.58;;;18.40;99.90;;;;;;5053642;28;20463;-50
2022/05/19 01:15:45;;;;;;;4.30;3.50;;;18.30;99.90;;;;;;5052727;28;20433;-49
2022/05/19 01:18:12;;;;;;;8.57;3.90;;;18.30;99.90;;;;;;5052246;28;20480;-51
2022/05/19 01:20:38;;;;;;;5.47;3.45;;;18.20;99.90;;;;;;5053659;28;20060;-54
2022/05/19 01:23:14;;;;;;;5.38;3.40;;;18.20;99.90;;;;;;5052121;28;20063;-49
2022/05/19 01:26:09;;;;;;;6.43;4.00;;;18.10;99.90;;;;;;5052626;28;20029;-51
2022/05/19 01:28:35;;;;;;;3.47;3.15;;;18.10;99.90;;;;;;5044201;28;20428;-52
2022/05/19 01:31:00;;;;;;;8.05;3.97;;;18.10;99.90;;;;;;5051886;28;20017;-52
2022/05/19 01:33:26;;;;;;;5.45;3.88;;;17.90;99.90;;;;;;5053289;28;20055;-53
2022/05/19 01:35:51;;;;;;;6.22;3.88;;;17.90;99.90;;;;;;5053218;28;20132;-53
2022/05/19 01:38:28;;;;;;;6.53;3.55;;;17.90;99.90;;;;;;5052868;28;20062;-51
2022/05/19 01:41:03;;;;;;;4.28;3.50;;;17.90;99.90;;;;;;5051792;28;20570;-51
2022/05/19 01:43:48;;;;;;;7.57;4.05;;;17.80;99.90;;;;;;5053294;28;20021;-55
2022/05/19 01:46:35;;;;;;;6.72;3.40;;;17.90;99.90;;;;;;5051828;28;20548;-50
2022/05/19 01:49:13;;;;;;;7.43;3.58;;;17.90;99.90;;;;;;5053044;28;20060;-52
2022/05/19 01:51:50;;;;;;;4.82;3.65;;;17.80;99.90;;;;;;5051801;28;20032;-51
2022/05/19 01:54:43;;;;;;;4.22;3.60;;;17.80;99.90;;;;;;5053123;28;20476;-53
2022/05/19 01:57:28;;;;;;;5.45;3.83;;;17.80;99.90;;;;;;5051617;28;20039;-54
2022/05/19 01:59:57;;;;;;;6.18;3.88;;;17.80;99.90;;;;;;5052826;28;20029;-49
2022/05/19 02:02:43;;;;;;;5.53;3.72;;;17.80;99.90;;;;;;5051684;28;20396;-51
2022/05/19 02:05:42;;;;;;;6.55;3.83;;;17.70;99.90;;;;;;5051881;28;20025;-52
2022/05/19 02:08:17;;;;;;;4.63;3.95;;;17.80;99.90;;;;;;5052861;28;20082;-48
2022/05/19 02:10:48;;;;;;;7.60;3.85;;;17.70;99.90;;;;;;5051624;28;20052;-48
2022/05/19 02:13:15;;;;;;;8.65;4.20;;;17.70;99.90;;;;;;5053180;28;20067;-49
2022/05/19 02:15:45;;;;;;;8.73;4.25;;;17.60;99.90;;;;;;5051819;28;20049;-48
2022/05/19 02:18:14;;;;;;;8.30;4.45;;;17.60;99.90;;;;;;5052762;28;20025;-48
2022/05/19 02:20:42;;;;;;;5.60;4.10;;;17.50;99.90;;;;;;5052776;28;20025;-49
2022/05/19 02:23:11;;;;;;;4.43;3.50;;;17.60;99.90;;;;;;5052701;28;20047;-51
2022/05/19 02:25:42;;;;;;;7.07;4.07;;;17.60;99.90;;;;;;5051309;28;20033;-51
2022/05/19 02:28:27;;;;;;;5.65;3.58;;;17.60;99.90;;;;;;5052202;28;20021;-49
2022/05/19 02:30:54;;;;;;;4.45;3.63;;;17.60;99.90;;;;;;5052577;28;20025;-50
2022/05/19 02:33:19;;;;;;;4.93;3.92;;;17.60;99.90;;;;;;5052862;28;20025;-48
2022/05/19 02:35:45;;;;;;;6.00;3.45;;;17.50;99.90;;;;;;5052569;28;20079;-49
2022/05/19 02:38:12;;;;;;;6.85;4.30;;;17.50;99.90;;;;;;5052592;28;20018;-52
2022/05/19 02:40:39;;;;;;;5.70;3.85;;;17.40;99.90;;;;;;5050976;28;20511;-51
2022/05/19 02:43:06;;;;;;;5.60;3.97;;;17.40;99.90;;;;;;5051526;28;20078;-52
2022/05/19 02:45:32;;;;;;;8.82;4.45;;;17.20;99.90;;;;;;5053000;28;20036;-51
2022/05/19 02:47:59;;;;;;;6.65;4.13;;;17.00;99.90;;;;;;5052460;28;20063;-49
2022/05/19 02:50:25;;;;;;;7.63;4.95;;;17.00;99.90;;;;;;5051095;28;20017;-49
2022/05/19 02:52:51;;;;;;;6.82;3.80;;;17.10;99.90;;;;;;5051277;28;20024;-50
2022/05/19 02:55:17;;;;;;;6.70;4.22;;;17.10;99.90;;;;;;5051214;28;20025;-49
2022/05/19 02:57:43;;;;;;;8.45;3.83;;;17.10;99.90;;;;;;5051117;28;20037;-49
2022/05/19 03:00:12;;;;;;;7.57;4.55;;;17.10;99.90;;;;;;5052531;28;20096;-52
2022/05/19 03:02:39;;;;;;;4.53;3.67;;;17.10;99.90;;;;;;5052372;28;20079;-49
2022/05/19 03:05:06;;;;;;;4.95;3.90;;;17.20;99.90;;;;;;5052335;28;20104;-50
2022/05/19 03:07:31;;;;;;;6.10;4.03;;;17.20;99.90;;;;;;5052706;28;20045;-49
2022/05/19 03:09:57;;;;;;;4.47;3.60;;;17.20;99.90;;;;;;5056141;28;20069;-51
2022/05/19 03:12:23;;;;;;;6.38;4.15;;;17.20;99.90;;;;;;5054708;28;20021;-49
2022/05/19 03:14:48;;;;;;;5.03;4.00;;;17.20;99.90;;;;;;5055877;28;20028;-49
2022/05/19 03:17:14;;;;;;;6.18;4.53;;;17.10;99.90;;;;;;5054899;28;20025;-51
2022/05/19 03:19:40;;;;;;;9.52;3.80;;;17.00;99.90;;;;;;5055982;28;20455;-52
2022/05/19 03:22:06;;;;;;;6.90;4.30;;;17.00;99.90;;;;;;5054457;28;20025;-49
2022/05/19 03:24:32;;;;;;;6.22;3.85;;;17.00;99.90;;;;;;5054246;28;20060;-49
2022/05/19 03:26:58;;;;;;;5.68;3.78;;;17.00;99.90;;;;;;5055899;28;20017;-48
2022/05/19 03:29:24;;;;;;;4.82;3.65;;;17.00;99.90;;;;;;5055556;28;20024;-49
2022/05/19 03:31:50;;;;;;;6.18;4.07;;;16.90;99.90;;;;;;5055559;28;20033;-49
2022/05/19 03:34:17;;;;;;;6.53;3.72;;;16.90;99.90;;;;;;5054398;28;20025;-50
2022/05/19 03:36:44;;;;;;;5.90;3.90;;;16.80;99.90;;;;;;5055410;28;20048;-55
2022/05/19 03:39:09;;;;;;;4.95;3.40;;;16.70;99.90;;;;;;5055283;28;20017;-49
2022/05/19 03:41:35;;;;;;;5.20;3.70;;;16.60;99.90;;;;;;5054425;28;20031;-50
2022/05/19 03:44:01;;;;;;;5.05;3.65;;;16.70;99.90;;;;;;5053981;28;20031;-49
2022/05/19 03:46:26;;;;;;;10.68;4.18;;;16.70;99.90;;;;;;5054194;28;20052;-51
2022/05/19 03:48:53;;;;;;;7.65;4.07;;;16.70;99.90;;;;;;5055486;28;20052;-50
2022/05/19 03:51:28;;;;;;;7.82;3.97;;;16.70;99.90;;;;;;5053910;28;20031;-51
2022/05/19 03:53:54;;;;;;;11.07;4.28;;;16.70;99.90;;;;;;5055261;28;20100;-49
2022/05/19 03:56:21;;;;;;;5.40;3.97;;;16.70;99.90;;;;;;5055338;28;20033;-52
2022/05/19 03:58:48;;;;;;;4.13;3.60;;;16.70;99.90;;;;;;5055085;28;20024;-54
2022/05/19 04:01:14;;;;;;;5.13;3.53;;;16.70;99.90;;;;;;5054952;28;20067;-48
2022/05/19 04:03:40;;;;;;;8.65;4.20;;;16.80;99.90;;;;;;5054007;28;20032;-51
2022/05/19 04:06:06;;;;;;;7.03;3.92;;;16.70;99.90;;;;;;5053967;28;20021;-51
2022/05/19 04:08:32;;;;;;;4.43;3.63;;;16.80;99.90;;;;;;5053548;28;20111;-49
2022/05/19 04:10:57;;;;;;;4.80;3.90;;;16.90;99.90;;;;;;5054753;28;20104;-51
2022/05/19 04:13:23;;;;;;;9.25;3.85;;;17.00;99.90;;;;;;5053636;28;20043;-49
2022/05/19 04:15:49;;;;;;;6.70;3.67;;;17.00;99.90;;;;;;5054637;28;20040;-49
2022/05/19 04:18:14;;;;;;;9.32;4.13;;;17.20;99.90;;;;;;5053424;28;20060;-49
2022/05/19 04:20:41;;;;;;;6.13;4.20;;;17.30;99.90;;;;;;5052552;28;20086;-49
2022/05/19 04:23:07;;;;;;;4.90;3.70;;;17.40;99.90;;;;;;5054138;28;20032;-49
2022/05/19 04:25:33;;;;;;;5.75;3.97;;;17.40;99.90;;;;;;5054660;28;20037;-49
2022/05/19 04:27:59;;;;;;;5.00;3.63;;;17.40;99.90;;;;;;5054517;28;20029;-50
2022/05/19 04:30:25;;;;;;;10.82;4.43;;;17.40;99.90;;;;;;5054318;28;20182;-51
2022/05/19 04:32:51;;;;;;;7.10;4.53;;;17.40;99.90;;;;;;5055015;28;20040;-51
2022/05/19 04:35:16;;;;;;;7.35;4.43;;;17.40;99.90;;;;;;5053436;28;20021;-52
2022/05/19 04:37:43;;;;;;;5.30;3.88;;;17.40;99.90;;;;;;5053503;28;20074;-52
2022/05/19 04:40:09;;;;;;;5.40;4.20;;;17.40;99.90;;;;;;5054623;28;20021;-51
2022/05/19 04:42:35;;;;;;;5.50;3.80;;;17.50;99.90;;;;;;5053420;28;20025;-51
2022/05/19 04:45:00;;;;;;;7.93;4.60;;;17.60;99.90;;;;;;5054381;28;20032;-49
2022/05/19 04:47:26;;;;;;;6.63;4.15;;;17.70;99.90;;;;;;5053211;28;20031;-49
2022/05/19 04:49:52;;;;;;;6.15;3.55;;;17.80;99.90;;;;;;5054332;28;20029;-49
2022/05/19 04:52:20;;;;;;;8.38;4.53;;;18.00;99.90;;;;;;5054569;28;20020;-49
2022/05/19 04:54:45;;;;;;;8.45;4.05;;;18.20;99.90;;;;;;5054302;28;20070;-49
2022/05/19 04:57:11;;;;;;;9.68;4.13;;;18.30;99.90;;;;;;5054278;28;20029;-49
2022/05/19 04:59:41;;;;;;;5.50;4.10;;;18.50;99.90;;;;;;5053658;28;20067;-49
2022/05/19 05:02:09;;;;;;;12.32;4.35;;;18.60;99.90;;;;;;5054359;28;20021;-49
2022/05/19 05:04:35;;;;;;;8.13;3.70;;;18.60;99.90;;;;;;5054076;28;20021;-49
2022/05/19 05:07:01;;;;;;;7.53;4.22;;;18.70;99.90;;;;;;5052964;28;20021;-49
2022/05/19 05:09:27;;;;;;;8.68;3.95;;;18.80;99.90;;;;;;5054041;28;20106;-49
2022/05/19 05:11:52;;;;;;;5.55;3.65;;;19.10;99.90;;;;;;5052708;28;20067;-50
2022/05/19 05:14:18;;;;;;;4.93;3.17;;;19.40;99.90;;;;;;5053819;28;20037;-51
2022/05/19 05:16:48;;;;;;;4.38;3.72;;;19.70;99.90;;;;;;5053239;28;20071;-50
2022/05/19 05:19:18;;;;;;;5.70;3.50;;;20.00;99.90;;;;;;5054182;28;20032;-47
2022/05/19 05:21:51;;;;;;;4.18;3.15;;;20.20;99.90;;;;;;5053495;28;20021;-50
2022/05/19 05:24:17;;;;;;;6.70;3.33;;;20.70;99.90;;;;;;5053089;28;20102;-49
2022/05/19 05:26:43;;;;;;;9.07;3.33;;;21.00;99.90;;;;;;5052600;28;20499;-47
2022/05/19 05:29:08;;;;;;;5.53;3.03;;;21.40;99.90;;;;;;5053771;28;20048;-50
2022/05/19 05:31:34;;;;;;;4.18;2.88;;;22.10;99.90;;;;;;5053374;28;20131;-49
2022/05/19 05:34:00;;;;;;;5.18;3.00;;;22.60;99.90;;;;;;5052561;28;20028;-47
2022/05/19 05:36:26;;;;;;;6.60;3.00;;;22.90;99.90;;;;;;5052342;28;20028;-48
2022/05/19 05:38:51;;;;;;;4.93;2.83;;;23.30;99.90;;;;;;5052365;28;20028;-46
2022/05/19 05:41:17;;;;;;;4.00;2.60;;;23.50;99.90;;;;;;5052544;28;20025;-46
2022/05/19 05:43:43;;;;;;;6.35;2.90;;;23.70;99.90;;;;;;5053768;28;20107;-46
2022/05/19 05:46:14;;;;;;;3.95;3.00;;;24.10;99.90;;;;;;5052537;28;20021;-48
2022/05/19 05:48:40;;;;;;;5.35;2.72;;;24.10;99.90;;;;;;5053610;28;20104;-46
2022/05/19 05:51:07;;;;;;;5.68;3.30;;;24.40;99.90;;;;;;5052401;28;20032;-46
2022/05/19 05:53:34;;;;;;;6.28;2.92;;;24.50;99.90;;;;;;5053949;28;20112;-46
2022/05/19 05:56:00;;;;;;;4.72;2.60;;;24.90;99.90;;;;;;5053439;28;20025;-46
2022/05/19 05:58:27;;;;;;;5.45;2.80;;;25.30;99.90;;;;;;5052026;28;20032;-47
2022/05/19 06:00:53;;;;;;;3.58;2.40;;;25.30;99.90;;;;;;5051900;28;20029;-46
2022/05/19 06:03:19;;;;;;;2.60;2.33;;;25.50;99.90;;;;;;5053316;28;20017;-46
2022/05/19 06:05:44;;;;;;;4.13;2.90;;;25.70;99.90;;;;;;5051942;28;20044;-46
2022/05/19 06:08:10;;;;;;;4.95;2.85;;;25.80;99.90;;;;;;5052270;28;20017;-47
2022/05/19 06:10:36;;;;;;;4.43;2.67;;;26.00;99.90;;;;;;5051966;28;20052;-48
2022/05/19 06:13:03;;;;;;;3.58;2.55;;;25.90;99.90;;;;;;5051915;28;20025;-47
2022/05/19 06:15:29;;;;;;;5.85;3.08;;;26.10;99.90;;;;;;5052268;28;20037;-48
2022/05/19 06:17:54;;;;;;;6.20;2.58;;;26.30;99.90;;;;;;5053448;28;20104;-48
2022/05/19 06:20:20;;;;;;;4.95;2.33;;;26.40;99.90;;;;;;5053004;28;20052;-48
2022/05/19 06:22:47;;;;;;;4.20;2.40;;;26.90;99.90;;;;;;5052693;28;20423;-50
2022/05/19 06:25:16;;;;;;;3.88;2.28;;;27.20;99.90;;;;;;5052055;28;20036;-48
2022/05/19 06:27:43;;;;;;;5.93;2.08;;;27.10;99.90;;;;;;5051832;28;20021;-48
2022/05/19 06:30:09;;;;;;;3.33;2.28;;;26.90;99.90;;;;;;5051985;28;20025;-51
2022/05/19 06:32:36;;;;;;;2.50;2.30;;;26.60;99.90;;;;;;5051695;28;20025;-48
2022/05/19 06:35:02;;;;;;;4.57;2.67;;;26.60;99.90;;;;;;5052311;28;20029;-48
2022/05/19 06:37:27;;;;;;;6.38;2.53;;;26.10;99.90;;;;;;5053292;28;20376;-47
2022/05/19 06:39:53;;;;;;;2.85;2.00;;;26.60;99.90;;;;;;5053392;28;20113;-47
2022/05/19 06:42:18;;;;;;;3.63;2.05;;;27.30;99.90;;;;;;5052542;28;20499;-47
2022/05/19 06:44:45;;;;;;;5.28;2.38;;;27.60;99.90;;;;;;5055568;28;20083;-46
2022/05/19 06:47:16;;;;;;;3.97;2.10;;;27.80;99.90;;;;;;5057056;28;20020;-46
2022/05/19 06:49:41;;;;;;;4.88;2.08;;;28.00;99.90;;;;;;5056672;28;20028;-46
2022/05/19 06:52:11;;;;;;;3.35;2.00;;;27.90;99.40;;;;;;5056703;28;20021;-46
2022/05/19 06:54:37;;;;;;;4.33;1.97;;;27.90;98.60;;;;;;5056713;28;20066;-47
2022/05/19 06:57:02;;;;;;;3.38;1.83;;;28.10;98.00;;;;;;5056662;28;20029;-47
2022/05/19 06:59:28;;;;;;;2.28;2.00;;;27.90;98.40;;;;;;5056498;28;20048;-46
2022/05/19 07:01:54;;;;;;;2.95;1.90;;;28.20;97.30;;;;;;5056538;28;20029;-46
2022/05/19 07:04:20;;;;;;;5.60;2.17;;;28.50;96.50;;;;;;5056368;28;20368;-47
2022/05/19 07:06:45;;;;;;;3.58;2.08;;;28.60;95.90;;;;;;5055162;28;20025;-47
2022/05/19 07:09:11;;;;;;;5.45;2.10;;;28.50;95.00;;;;;;5055367;28;20025;-47
2022/05/19 07:11:37;;;;;;;6.43;2.20;;;28.60;95.20;;;;;;5055097;28;20537;-46
2022/05/19 07:14:06;;;;;;;2.83;2.05;;;28.60;95.90;;;;;;5055091;28;20037;-46
2022/05/19 07:16:32;;;;;;;4.22;2.15;;;28.50;94.60;;;;;;5055007;28;20021;-46
2022/05/19 07:21:46;;;;;;;4.10;1.98;;;28.40;94.30;;;;;;5056487;28;20118;-48
2022/05/19 07:24:15;;;;;;;2.63;1.90;;;28.60;95.80;;;;;;5054903;28;20021;-46
2022/05/19 07:26:45;;;;;;;3.13;2.10;;;28.90;94.30;;;;;;5054849;28;20108;-45
2022/05/19 07:29:12;;;;;;;2.20;1.85;;;28.90;92.90;;;;;;5054394;28;20021;-46
2022/05/19 07:31:38;;;;;;;3.22;2.08;;;28.10;93.50;;;;;;5054497;28;20120;-46
2022/05/19 07:34:05;;;;;;;3.60;2.03;;;27.40;94.40;;;;;;5054611;28;20025;-46
2022/05/19 07:36:32;;;;;;;3.20;2.15;;;27.20;95.60;;;;;;5056067;28;20036;-46
2022/05/19 07:38:59;;;;;;;2.47;2.03;;;27.30;94.70;;;;;;5055903;28;20052;-45
2022/05/19 07:41:27;;;;;;;4.95;1.90;;;27.50;95.20;;;;;;5054332;28;20021;-46
2022/05/19 07:43:53;;;;;;;3.38;2.25;;;27.30;94.40;;;;;;5054510;28;20060;-47
2022/05/19 07:46:19;;;;;;;3.50;1.75;;;27.40;94.60;;;;;;5054866;28;20017;-46
2022/05/19 07:48:45;;;;;;;3.67;1.70;;;27.70;94.40;;;;;;5053891;28;20039;-46
2022/05/19 07:51:10;;;;;;;2.28;1.70;;;27.50;92.70;;;;;;5053705;28;20017;-45
2022/05/19 07:53:36;;;;;;;2.40;1.80;;;27.40;92.10;;;;;;5054341;28;20415;-44
2022/05/19 07:56:03;;;;;;;5.63;1.80;;;27.30;91.70;;;;;;5053881;28;20021;-45
2022/05/19 07:58:29;;;;;;;4.70;1.92;;;27.10;93.20;;;;;;5054362;28;20024;-45
2022/05/19 08:00:56;;;;;;;4.55;1.83;;;26.90;94.20;;;;;;5054349;28;20115;-47
2022/05/19 08:03:24;;;;;;;3.95;1.90;;;26.80;94.70;;;;;;5054607;28;20025;-46
2022/05/19 08:05:50;;;;;;;2.05;1.58;;;26.70;93.10;;;;;;5053203;28;20449;-51
2022/05/19 08:08:16;;;;;;;3.35;1.92;;;26.60;92.40;;;;;;5053125;28;20107;-48
2022/05/19 08:10:41;;;;;;;2.80;1.50;;;25.90;92.30;;;;;;5053433;28;20060;-52
2022/05/19 08:15:51;;;;;;;2.08;1.80;;;25.80;94.50;;;;;;5054412;28;20040;-52
2022/05/19 08:18:21;;;;;;;3.17;1.52;;;27.30;93.70;;;;;;5054270;28;20029;-48
2022/05/19 08:20:53;;;;;;;4.43;1.73;;;28.80;91.80;;;;;;5053041;28;20055;-50
2022/05/19 08:23:31;;;;;;;5.55;1.75;;;28.70;92.40;;;;;;5054614;28;20054;-49
2022/05/19 08:25:57;;;;;;;4.78;1.65;;;29.90;90.50;;;;;;5053533;28;20021;-50
2022/05/19 08:28:29;;;;;;;3.83;1.88;;;30.50;87.40;;;;;;5052547;28;20079;-49
2022/05/19 08:30:57;;;;;;;6.93;1.92;;;30.90;85.70;;;;;;5052488;28;20108;-53
2022/05/19 08:33:23;;;;;;;2.13;1.60;;;29.90;84.10;;;;;;5054364;28;20028;-53
2022/05/19 08:35:49;;;;;;;2.13;1.90;;;29.80;85.20;;;;;;5053183;28;20021;-50
2022/05/19 08:38:15;;;;;;;3.53;1.90;;;29.80;86.10;;;;;;5053078;28;20052;-53
2022/05/19 08:40:48;;;;;;;2.78;2.00;;;30.20;86.40;;;;;;5052818;28;20040;-50
2022/05/19 08:43:18;;;;;;;2.33;1.67;;;29.40;85.40;;;;;;5054193;28;20104;-51
2022/05/19 08:45:50;;;;;;;3.88;1.70;;;29.10;87.10;;;;;;5053525;28;20036;-49
2022/05/19 08:48:22;;;;;;;3.35;1.45;;;28.20;85.60;;;;;;5053906;28;20020;-53
2022/05/19 08:50:54;;;;;;;2.58;1.60;;;28.00;88.70;;;;;;5054528;28;20091;-52
2022/05/19 08:53:20;;;;;;;3.50;1.95;;;28.50;89.00;;;;;;5053368;28;20116;-55
2022/05/19 08:55:51;;;;;;;6.78;2.10;;;28.80;89.10;;;;;;5054976;28;20551;-45
2022/05/19 08:58:45;;;;;;;4.15;1.88;;;28.30;88.50;;;;;;5053038;28;20083;-46
2022/05/19 09:01:22;;;;;;;7.03;1.92;;;28.40;89.30;;;;;;5054347;28;20037;-46
2022/05/19 09:04:00;;;;;;;6.55;1.98;;;29.10;89.70;;;;;;5054239;28;20113;-46
2022/05/19 09:10:11;;;;;;;4.03;1.92;;;31.70;87.10;;;;;;5054485;28;20075;-47
2022/05/19 09:12:39;;;;;;;5.60;1.60;;;33.10;79.90;;;;;;5052891;28;20537;-52
2022/05/19 09:15:09;;;;;;;2.65;2.13;;;33.00;80.80;;;;;;5052656;28;20033;-47
2022/05/19 09:17:40;;;;;;;4.25;2.08;;;31.80;77.20;;;;;;5053186;28;20017;-46
2022/05/19 09:20:11;;;;;;;3.83;1.80;;;30.80;79.00;;;;;;5054237;28;20021;-45
2022/05/19 09:22:37;;;;;;;2.10;1.90;;;29.90;79.90;;;;;;5053374;28;20016;-48
2022/05/19 09:25:06;;;;;;;2.53;1.70;;;29.90;81.50;;;;;;5052842;28;20384;-50
2022/05/19 09:27:36;;;;;;;8.63;1.75;;;29.80;82.70;;;;;;5053884;28;20392;-48
2022/05/19 09:30:04;;;;;;;3.60;1.67;;;31.10;82.70;;;;;;5053794;28;20403;-46
2022/05/19 09:32:37;;;;;;;2.90;1.70;;;31.10;79.20;;;;;;5053347;28;20029;-50
2022/05/19 09:35:20;;;;;;;6.55;1.80;;;31.50;78.90;;;;;;5052701;28;20052;-46
2022/05/19 09:38:04;;;;;;;5.00;1.70;;;30.90;79.60;;;;;;5053032;28;20032;-49
2022/05/19 09:40:33;;;;;;;3.65;1.70;;;31.80;79.00;;;;;;5053615;28;20041;-46
2022/05/19 09:43:32;;;;;;;3.15;1.98;;;33.00;77.50;;;;;;5052296;28;20033;-46
2022/05/19 09:46:09;;;;;;;6.53;2.00;;;32.00;75.50;;;;;;5052239;28;20392;-47
2022/05/19 09:48:41;;;;;;;4.68;1.80;;;31.00;77.50;;;;;;5053533;28;20021;-45
2022/05/19 09:51:13;;;;;;;4.45;1.50;;;30.50;77.80;;;;;;5053415;28;20024;-46
2022/05/19 09:53:41;;;;;;;3.92;1.98;;;30.90;77.70;;;;;;5052088;28;20491;-45
2022/05/19 09:56:12;;;;;;;9.85;1.90;;;31.30;76.60;;;;;;5053355;28;20032;-45
2022/05/19 09:58:44;;;;;;;6.53;1.90;;;31.90;77.10;;;;;;5053410;28;20418;-46
2022/05/19 10:01:29;;;;;;;3.53;1.95;;;32.60;76.70;;;;;;5052061;28;20040;-46
2022/05/19 10:03:58;;;;;;;2.63;1.98;;;32.90;73.80;;;;;;5051933;28;20054;-46
2022/05/19 10:06:37;;;;;;;3.80;1.73;;;32.70;75.20;;;;;;5053259;28;20018;-50
2022/05/19 10:09:10;;;;;;;4.55;1.98;;;32.00;76.40;;;;;;5053165;28;20102;-47
2022/05/19 10:11:49;;;;;;;3.08;1.92;;;31.50;75.00;;;;;;5053315;28;20097;-44
2022/05/19 10:14:26;;;;;;;3.40;1.70;;;31.20;78.00;;;;;;5053064;28;20112;-48
2022/05/19 10:17:10;;;;;;;4.55;2.35;;;31.30;78.10;;;;;;5054224;28;20100;-44
2022/05/19 10:19:59;;;;;;;2.65;1.70;;;31.10;79.00;;;;;;5057284;28;20029;-45
2022/05/19 10:22:48;;;;;;;4.20;1.90;;;30.70;78.40;;;;;;5056110;28;20025;-45
2022/05/19 10:25:37;;;;;;;3.63;1.88;;;30.10;79.10;;;;;;5057459;28;20037;-44
2022/05/19 10:31:37;;;;;;;3.20;2.00;;;28.70;81.90;;;;;;5057992;28;20036;-44
2022/05/19 10:34:25;;;;;;;7.05;2.28;;;28.40;84.70;;;;;;5056953;28;20055;-44
2022/05/19 10:37:03;;;;;;;5.43;2.05;;;28.20;85.90;;;;;;5055827;28;20021;-44
2022/05/19 10:39:35;;;;;;;4.13;1.65;;;28.20;87.20;;;;;;5056973;28;20100;-44
2022/05/19 10:42:07;;;;;;;5.18;2.20;;;28.40;88.40;;;;;;5056929;28;20092;-44
2022/05/19 10:44:36;;;;;;;4.05;2.00;;;28.50;87.70;;;;;;5055547;28;20036;-46
2022/05/19 10:47:23;;;;;;;2.92;2.15;;;28.40;86.60;;;;;;5056925;28;20048;-45
2022/05/19 10:50:06;;;;;;;3.42;2.00;;;28.30;87.70;;;;;;5055517;28;20025;-45
2022/05/19 10:52:39;;;;;;;9.07;2.38;;;28.30;85.90;;;;;;5057141;28;20096;-45
2022/05/19 10:55:17;;;;;;;5.93;2.03;;;28.20;87.00;;;;;;5055629;28;20040;-45
2022/05/19 10:58:06;;;;;;;3.70;1.95;;;28.00;87.00;;;;;;5055459;28;20029;-45
2022/05/19 11:01:15;;;;;;;5.50;2.00;;;28.30;87.10;;;;;;5055359;28;20047;-47
2022/05/19 11:04:00;;;;;;;2.72;1.73;;;28.30;85.10;;;;;;5055429;28;20032;-49
2022/05/19 11:06:51;;;;;;;6.32;1.92;;;28.10;86.60;;;;;;5055918;28;20025;-50
2022/05/19 11:09:47;;;;;;;4.15;1.70;;;28.30;85.70;;;;;;5055283;28;20059;-50
2022/05/19 11:12:27;;;;;;;8.07;2.35;;;28.60;85.10;;;;;;5056591;28;20021;-49
2022/05/19 11:15:02;;;;;;;4.50;1.50;;;28.20;84.60;;;;;;5054970;28;20037;-49
2022/05/19 11:17:56;;;;;;;3.78;2.00;;;27.90;85.70;;;;;;5056264;28;20025;-52
2022/05/19 11:20:38;;;;;;;6.70;1.70;;;27.70;85.70;;;;;;5056263;28;20100;-46
2022/05/19 11:23:12;;;;;;;6.43;2.10;;;27.70;86.20;;;;;;5055291;28;20040;-51
2022/05/19 11:28:38;;;;;;;;;;;27.70;87.10;;;;;;5056230;28;20075;-48
2022/05/19 11:31:13;;;;;;;11.02;2.67;;;27.70;87.40;;;;;;5056288;28;19909;-49
2022/05/19 11:33:41;;;;;;;2.72;2.08;;;27.80;88.30;;;;;;5055949;28;20084;-48
2022/05/19 11:36:27;;;;;;;6.82;1.98;;;27.30;88.50;;;;;;5054816;28;20032;-49
2022/05/19 11:39:05;;;;;;;5.40;1.83;;;27.50;90.00;;;;;;5056449;28;20032;-58
2022/05/19 11:41:35;;;;;;;2.53;2.05;;;27.20;90.20;;;;;;5054676;28;20514;-58
2022/05/19 11:44:14;;;;;;;3.80;1.85;;;27.00;89.60;;;;;;5054856;28;20032;-57
2022/05/19 11:46:48;;;;;;;4.10;1.92;;;27.50;89.10;;;;;;5055792;28;20029;-59
2022/05/19 11:55:30;;;;;;;3.55;1.90;;;27.80;88.90;;;;;;5055980;28;20036;-59
2022/05/19 11:58:11;;;;;;;3.17;2.17;;;27.50;88.50;;;;;;5054466;28;20472;-58
2022/05/19 12:00:49;;;;;;;5.65;1.65;;;27.40;88.20;;;;;;5054195;28;20053;-58
2022/05/19 12:03:23;;;;;;;2.33;1.70;;;27.20;90.30;;;;;;5055805;28;20047;-59
2022/05/19 12:06:01;;;;;;;3.25;2.20;;;27.40;90.70;;;;;;5055425;28;20107;-57
2022/05/19 12:08:36;;;;;;;2.75;1.80;;;27.80;89.90;;;;;;5055067;28;20410;-58
2022/05/19 12:11:18;;;;;;;4.43;2.53;;;27.80;89.80;;;;;;5055567;28;20067;-56
2022/05/19 12:13:52;;;;;;;6.05;2.10;;;27.40;90.50;;;;;;5053937;28;20029;-58
2022/05/19 12:16:25;;;;;;;8.90;2.10;;;27.60;91.40;;;;;;5055769;28;20029;-55
2022/05/19 12:19:08;;;;;;;7.53;2.25;;;27.70;90.90;;;;;;5054613;28;20028;-58
2022/05/19 12:21:46;;;;;;;8.27;2.10;;;27.70;89.80;;;;;;5055478;28;20037;-57
2022/05/19 12:24:13;;;;;;;4.68;2.00;;;27.80;90.00;;;;;;5055274;28;20051;-57
2022/05/19 12:27:01;;;;;;;4.53;1.90;;;27.80;90.70;;;;;;5054156;28;20120;-57
2022/05/19 12:29:47;;;;;;;4.82;2.22;;;27.70;90.80;;;;;;5053651;28;20117;-55
2022/05/19 12:32:28;;;;;;;3.25;2.10;;;27.80;91.30;;;;;;5053946;28;20025;-59
2022/05/19 12:35:01;;;;;;;;;;;28.00;91.30;;;;;;5069594;22;20034;-45
2022/05/19 12:37:38;;;;;;;7.03;2.45;;;27.90;92.10;;;;;;5034898;28;19944;-49
2022/05/19 12:40:21;;;;;;;3.17;2.15;;;27.80;91.70;;;;;;5034473;28;20040;-46
2022/05/19 12:42:48;;;;;;;6.82;2.15;;;27.50;90.80;;;;;;5050255;28;20368;-47
2022/05/19 12:45:19;;;;;;;3.05;2.13;;;27.50;91.60;;;;;;5034916;28;20029;-48
2022/05/19 12:47:56;;;;;;;;;;;27.90;91.40;;;;;;5035430;28;20071;-50
2022/05/19 12:50:23;;;;;;;7.93;2.10;;;28.00;91.40;;;;;;5033283;28;20381;-49
2022/05/19 12:52:56;;;;;;;8.13;1.88;;;28.00;92.20;;;;;;5034941;28;20025;-47
2022/05/19 12:55:24;;;;;;;5.43;2.75;;;28.20;92.40;;;;;;5033563;28;20032;-45
2022/05/19 12:57:57;;;;;;;10.07;2.78;;;28.20;92.90;;;;;;5033299;28;20025;-48
2022/05/19 13:00:37;;;;;;;3.40;2.20;;;27.90;93.20;;;;;;5033262;28;20032;-46
2022/05/19 13:03:09;;;;;;;2.78;2.20;;;27.70;92.50;;;;;;5033223;28;20025;-44
2022/05/19 13:05:52;;;;;;;3.60;2.40;;;27.60;93.10;;;;;;5034252;28;20084;-47
2022/05/19 13:08:56;;;;;;;4.88;2.42;;;27.50;93.40;;;;;;5034667;28;20028;-45
2022/05/19 13:11:31;;;;;;;4.53;2.13;;;27.30;94.00;;;;;;5033912;28;20021;-46
2022/05/19 13:14:05;;;;;;;3.70;2.60;;;27.30;94.50;;;;;;5033793;28;20021;-48
2022/05/19 13:16:41;;;;;;;4.20;2.33;;;27.50;95.20;;;;;;5033464;28;20025;-48
2022/05/19 13:19:26;;;;;;;4.78;2.60;;;27.60;95.10;;;;;;5034187;28;20048;-45
2022/05/19 13:21:58;;;;;;;7.35;2.40;;;27.80;95.70;;;;;;5034046;28;20021;-47
2022/05/19 13:24:26;;;;;;;3.50;2.40;;;28.00;96.20;;;;;;5032653;28;20051;-47
2022/05/19 13:32:33;;;;;;;4.00;3.05;;;28.10;95.30;;;;;;5034507;28;20537;-51
2022/05/19 13:35:06;;;;;;;4.63;2.92;;;28.20;95.40;;;;;;5032682;28;20104;-49
2022/05/19 13:37:34;;;;;;;5.35;2.35;;;28.30;95.20;;;;;;5033481;28;20036;-44
2022/05/19 13:40:13;;;;;;;7.45;2.25;;;28.40;94.30;;;;;;5033724;28;20033;-47
2022/05/19 13:42:42;;;;;;;8.13;2.58;;;28.40;94.30;;;;;;5032482;28;20040;-46